Shields, Kansas
Current Conditions -  °F | °C
As of 4:54 AM on Tuesday 21 Oct 2014 (Local Time) from KGCK Reporting Station
Clear Clear  
Wind Chill: 50°   Ceiling: Unl
Heat Index: 50°   Visibility: 10mi
Dew Point: 45°   Wind: 8mph
Humidity: 83%   Direction: 110°ESE
Pressure: 30.06"   Gusts: NA
Location:  38.4812°N, 100.393°W
Report Text: KGCK 210954Z AUTO 11007KT 10SM CLR 10/07 A3006 RMK AO2 SLP161 T01000072
Loading
Personal Weather Stations






























Interactive Weather Map
Tropical Storm Tracking
New forecast layout! Learn more

10-Day Weather Forecast

Advertisements
Track Severe Weather on mobile